Current Weather

Ouargla

Ouargla, Algeria (DAUU)

Report from: Monday, June 17, 2024 12:00 PM CET
Current time: Monday, June 17, 2024 12:32 PM CET

Nearby weather – Weather history – Daily summaries
Weather forecast

Temperature41.0°C (105.8°F)
Heat index38.5°C (101.3°F)
Dew point6.0°C (42.8°F)
Winds 13 kts (6.7 m/s, 15 mph) South-Southeast (150°)
Visibility5 mi. (8 km)
Clouds Scattered clouds 4,600 ft. (1,402 m)
Ceiling: Broken clouds 23,300 ft. (7,102 m)
Altimeter29.88 in.Hg (1012 mB)
Relative humidity12 %
Density altitude3,097 ft. (944 m)
Flight conditions Marginal Visual Meteorological Conditions
Raw dataDAUU 171100Z 15013KT 8000 SCT046 BKN233 41/06 Q1012
An error has occurred. This application may no longer respond until reloaded. Reload 🗙